createdAt,value
2022-12-12T00:00:30.908Z,52.33
2022-12-12T00:02:03.699Z,51.28
2022-12-12T00:03:36.550Z,54.75
2022-12-12T00:05:10.957Z,56.13
2022-12-12T00:06:43.944Z,57.22
2022-12-12T00:08:16.748Z,57.08
2022-12-12T00:09:49.515Z,53.65
2022-12-12T00:11:23.689Z,51.40
2022-12-12T00:12:57.779Z,52.72
2022-12-12T00:14:30.562Z,53.92
2022-12-12T00:16:04.635Z,54.38
2022-12-12T00:17:37.369Z,56.28
2022-12-12T00:19:10.164Z,53.10
2022-12-12T00:20:41.956Z,54.25
2022-12-12T00:22:14.720Z,55.17
2022-12-12T00:23:48.304Z,51.55
2022-12-12T00:25:21.183Z,56.13
2022-12-12T00:26:53.943Z,54.53
2022-12-12T00:28:27.929Z,52.15
2022-12-12T00:30:00.669Z,53.55
2022-12-12T00:31:33.623Z,57.97
2022-12-12T00:33:06.380Z,54.10
2022-12-12T00:34:39.094Z,56.42
2022-12-12T00:36:12.469Z,51.58
2022-12-12T00:37:45.231Z,52.65
2022-12-12T00:39:18.554Z,53.58
2022-12-12T00:40:55.823Z,53.05
2022-12-12T00:42:28.565Z,53.47
2022-12-12T00:44:02.657Z,59.78
2022-12-12T00:45:35.344Z,53.67
2022-12-12T00:47:08.078Z,58.03
2022-12-12T00:48:39.887Z,52.50
2022-12-12T00:50:12.604Z,50.90
2022-12-12T00:51:45.690Z,53.17
2022-12-12T00:53:17.540Z,53.13
2022-12-12T00:54:50.237Z,52.67
2022-12-12T00:56:24.177Z,54.13
2022-12-12T00:57:56.878Z,53.90
2022-12-12T00:59:30.942Z,54.80
2022-12-12T01:01:09.775Z,53.28
2022-12-12T01:02:42.569Z,55.47
2022-12-12T01:04:15.716Z,52.00
2022-12-12T01:05:48.502Z,53.40
2022-12-12T01:07:21.250Z,52.63
2022-12-12T01:08:54.246Z,57.08
2022-12-12T01:10:27.046Z,56.80
2022-12-12T01:11:59.758Z,58.60
2022-12-12T01:13:32.557Z,57.85
2022-12-12T01:15:09.394Z,59.78
2022-12-12T01:16:42.179Z,56.80
2022-12-12T01:18:15.109Z,53.00
2022-12-12T01:19:47.821Z,57.03
2022-12-12T01:21:21.626Z,57.85
2022-12-12T01:22:54.498Z,62.00
2022-12-12T01:24:27.223Z,56.88
2022-12-12T01:26:03.571Z,62.63
2022-12-12T01:27:36.547Z,61.50
2022-12-12T01:29:09.252Z,64.10
2022-12-12T01:30:43.339Z,61.35
2022-12-12T01:32:16.111Z,61.17
2022-12-12T01:33:48.847Z,61.15
2022-12-12T01:35:21.614Z,61.28
2022-12-12T01:36:54.437Z,58.17
2022-12-12T01:38:27.264Z,61.28
2022-12-12T01:39:59.995Z,53.50
2022-12-12T01:41:33.595Z,58.28
2022-12-12T01:43:10.095Z,54.53
2022-12-12T01:44:45.726Z,52.90
2022-12-12T01:46:42.445Z,51.33
2022-12-12T01:48:14.770Z,52.42
2022-12-12T01:49:51.711Z,53.00
2022-12-12T01:51:26.225Z,48.08
2022-12-12T01:52:59.089Z,52.60
2022-12-12T01:54:35.007Z,47.95
2022-12-12T01:56:12.280Z,47.72
2022-12-12T01:57:48.157Z,46.95
2022-12-12T01:59:23.788Z,53.72
2022-12-12T02:00:56.661Z,52.67
2022-12-12T02:02:31.352Z,56.95
2022-12-12T02:04:04.857Z,51.67
2022-12-12T02:05:41.221Z,52.55
2022-12-12T02:07:13.940Z,55.45
2022-12-12T02:08:46.452Z,57.00
2022-12-12T02:10:19.287Z,54.08
2022-12-12T02:11:54.599Z,51.72
2022-12-12T02:13:30.687Z,50.60
2022-12-12T02:15:03.800Z,53.13
2022-12-12T02:17:02.495Z,49.95
2022-12-12T02:18:45.944Z,51.20
2022-12-12T02:20:51.379Z,47.85
2022-12-12T02:22:40.416Z,50.60
2022-12-12T02:24:48.916Z,47.65
2022-12-12T02:26:58.764Z,47.22
2022-12-12T02:29:04.258Z,50.15
2022-12-12T02:30:44.321Z,50.13
2022-12-12T02:32:25.198Z,49.78
2022-12-12T02:34:04.079Z,45.15
2022-12-12T02:35:47.347Z,45.70
2022-12-12T02:37:28.070Z,48.60
2022-12-12T02:39:06.247Z,49.50
2022-12-12T02:40:46.667Z,54.97
2022-12-12T02:42:29.083Z,50.10
2022-12-12T02:44:15.190Z,49.85
2022-12-12T02:45:52.163Z,50.67
2022-12-12T02:47:30.659Z,51.25
2022-12-12T02:49:07.187Z,52.03
2022-12-12T02:50:41.145Z,52.42
2022-12-12T02:52:14.501Z,53.00
2022-12-12T02:53:47.405Z,48.83
2022-12-12T02:55:20.692Z,46.55
2022-12-12T02:56:55.789Z,51.72
2022-12-12T02:58:28.672Z,47.65
2022-12-12T03:00:05.013Z,47.95
2022-12-12T03:01:44.722Z,51.50
2022-12-12T03:03:57.076Z,51.17
2022-12-12T03:06:01.129Z,47.92
2022-12-12T03:07:49.226Z,49.90
2022-12-12T03:09:35.729Z,49.65
2022-12-12T03:11:11.798Z,48.95
2022-12-12T03:12:58.744Z,46.20
2022-12-12T03:14:44.078Z,48.85
2022-12-12T03:16:27.155Z,47.20
2022-12-12T03:18:11.299Z,45.72
2022-12-12T03:19:52.299Z,48.50
2022-12-12T03:21:30.456Z,46.90
2022-12-12T03:23:08.685Z,45.80
2022-12-12T03:24:48.222Z,48.40
2022-12-12T03:26:26.250Z,47.15
2022-12-12T03:28:05.137Z,47.53
2022-12-12T03:29:43.027Z,46.95
2022-12-12T03:31:20.824Z,45.97
2022-12-12T03:32:59.448Z,47.55
2022-12-12T03:34:37.550Z,45.30
2022-12-12T03:36:16.981Z,45.38
2022-12-12T03:37:54.454Z,44.53
2022-12-12T03:39:34.391Z,47.75
2022-12-12T03:41:13.408Z,45.88
2022-12-12T03:42:50.538Z,43.13
2022-12-12T03:44:28.915Z,45.53
2022-12-12T03:46:08.664Z,47.00
2022-12-12T03:47:50.522Z,46.83
2022-12-12T03:49:27.731Z,45.05
2022-12-12T03:51:04.640Z,44.97
2022-12-12T03:52:42.739Z,45.35
2022-12-12T03:54:22.963Z,46.53
2022-12-12T03:56:00.932Z,43.15
2022-12-12T03:57:37.936Z,45.78
2022-12-12T03:59:13.007Z,47.28
2022-12-12T04:00:48.871Z,46.45
2022-12-12T04:02:28.273Z,46.63
2022-12-12T04:04:09.590Z,46.33
2022-12-12T04:06:00.792Z,47.22
2022-12-12T04:07:36.902Z,47.72
2022-12-12T04:09:31.291Z,46.55
2022-12-12T04:11:25.662Z,43.15
2022-12-12T04:13:08.383Z,43.88
2022-12-12T04:15:02.692Z,48.75
2022-12-12T04:16:41.011Z,45.78
2022-12-12T04:18:21.564Z,40.30
2022-12-12T04:20:16.894Z,45.17
2022-12-12T04:22:16.732Z,45.13
2022-12-12T04:24:00.502Z,44.78
2022-12-12T04:26:01.535Z,47.00
2022-12-12T04:27:38.423Z,47.25
2022-12-12T04:29:35.184Z,47.40
2022-12-12T04:31:08.124Z,45.17
2022-12-12T04:32:44.833Z,43.88
2022-12-12T04:34:23.818Z,41.40
2022-12-12T04:35:59.728Z,41.92
2022-12-12T04:37:36.044Z,41.63
2022-12-12T04:39:11.866Z,43.58
2022-12-12T04:40:48.784Z,41.17
2022-12-12T04:42:24.478Z,44.03
2022-12-12T04:43:58.333Z,42.38
2022-12-12T04:45:35.760Z,43.47
2022-12-12T04:47:10.588Z,39.88
2022-12-12T04:48:46.667Z,45.72
2022-12-12T04:50:20.774Z,46.38
2022-12-12T04:51:59.081Z,44.05
2022-12-12T04:53:38.149Z,42.67
2022-12-12T04:55:14.533Z,44.35
2022-12-12T04:56:52.767Z,42.17
2022-12-12T04:58:26.154Z,42.97
2022-12-12T04:59:58.992Z,38.83
2022-12-12T05:01:39.148Z,40.97
2022-12-12T05:03:18.760Z,46.25
2022-12-12T05:04:57.109Z,41.10
2022-12-12T05:06:33.990Z,43.50
2022-12-12T05:08:12.934Z,43.30
2022-12-12T05:09:46.112Z,40.83
2022-12-12T05:11:21.239Z,42.67
2022-12-12T05:13:00.821Z,45.17
2022-12-12T05:14:33.796Z,41.78
2022-12-12T05:16:18.091Z,44.38
2022-12-12T05:17:55.346Z,43.80
2022-12-12T05:19:28.054Z,41.92
2022-12-12T05:21:00.775Z,40.28
2022-12-12T05:22:33.480Z,41.40
2022-12-12T05:24:06.934Z,39.80
2022-12-12T05:25:39.643Z,39.03
2022-12-12T05:27:13.430Z,38.38
2022-12-12T05:28:47.516Z,42.55
2022-12-12T05:30:20.231Z,41.30
2022-12-12T05:31:52.281Z,42.95
2022-12-12T05:33:24.999Z,41.08
2022-12-12T05:34:57.712Z,36.90
2022-12-12T05:36:30.496Z,40.78
2022-12-12T05:38:03.359Z,41.28
2022-12-12T05:39:36.191Z,39.90
2022-12-12T05:41:09.219Z,38.67
2022-12-12T05:42:42.379Z,37.30
2022-12-12T05:44:16.422Z,38.28
2022-12-12T05:45:49.150Z,40.70
2022-12-12T05:47:21.909Z,39.65
2022-12-12T05:48:54.663Z,36.92
2022-12-12T05:50:27.785Z,39.47
2022-12-12T05:52:00.544Z,35.65
2022-12-12T05:53:39.119Z,37.15
2022-12-12T05:55:15.282Z,40.22
2022-12-12T05:56:48.189Z,39.10
2022-12-12T05:58:21.266Z,38.78
2022-12-12T05:59:55.318Z,40.72
2022-12-12T06:01:28.051Z,35.00
2022-12-12T06:03:00.902Z,36.67
2022-12-12T06:04:33.647Z,37.10
2022-12-12T06:06:06.683Z,38.70
2022-12-12T06:07:39.973Z,39.25
2022-12-12T06:09:12.982Z,35.78
2022-12-12T06:10:45.964Z,34.33
2022-12-12T06:12:18.675Z,35.60
2022-12-12T06:13:51.401Z,36.75
2022-12-12T06:15:25.539Z,38.70
2022-12-12T06:16:58.245Z,37.45
2022-12-12T06:18:30.978Z,39.70
2022-12-12T06:20:04.298Z,38.10
2022-12-12T06:21:37.015Z,40.20
2022-12-12T06:23:09.731Z,37.63
2022-12-12T06:24:42.502Z,35.75
2022-12-12T06:26:16.859Z,35.28
2022-12-12T06:27:49.572Z,34.90
2022-12-12T06:29:22.418Z,40.45
2022-12-12T06:30:56.662Z,35.85
2022-12-12T06:32:29.436Z,33.47
2022-12-12T06:34:02.160Z,33.78
2022-12-12T06:35:35.643Z,35.38
2022-12-12T06:37:12.894Z,33.83
2022-12-12T06:38:49.694Z,36.78
2022-12-12T06:40:22.412Z,33.67
2022-12-12T06:41:55.435Z,35.13
2022-12-12T06:43:28.140Z,33.45
2022-12-12T06:45:00.879Z,33.90
2022-12-12T06:46:35.043Z,36.67
2022-12-12T06:48:07.820Z,41.25
2022-12-12T06:49:40.528Z,37.38
2022-12-12T06:51:18.194Z,35.03
2022-12-12T06:52:50.914Z,34.95
2022-12-12T06:54:23.627Z,35.13
2022-12-12T06:55:56.336Z,37.10
2022-12-12T06:57:29.076Z,36.20
2022-12-12T06:59:01.806Z,36.53
2022-12-12T07:00:34.663Z,41.63
2022-12-12T07:02:11.883Z,37.92
2022-12-12T07:03:44.619Z,33.03
2022-12-12T07:05:17.425Z,30.45
2022-12-12T07:06:50.133Z,32.47
2022-12-12T07:08:22.907Z,36.83
2022-12-12T07:09:55.634Z,35.30
2022-12-12T07:11:28.657Z,35.22
2022-12-12T07:13:01.390Z,35.55
2022-12-12T07:14:34.084Z,35.85
2022-12-12T07:16:07.832Z,36.05
2022-12-12T07:17:41.953Z,36.92
2022-12-12T07:19:14.653Z,39.55
2022-12-12T07:20:47.588Z,34.55
2022-12-12T07:22:20.579Z,33.15
2022-12-12T07:23:53.297Z,35.40
2022-12-12T07:25:26.019Z,35.13
2022-12-12T07:26:58.775Z,33.58
2022-12-12T07:28:31.480Z,37.30
2022-12-12T07:30:04.816Z,34.92
2022-12-12T07:31:37.618Z,36.28
2022-12-12T07:33:13.037Z,37.03
2022-12-12T07:34:45.846Z,39.88
2022-12-12T07:36:18.645Z,37.42
2022-12-12T07:37:51.362Z,37.13
2022-12-12T07:39:24.100Z,37.47
2022-12-12T07:40:57.127Z,35.65
2022-12-12T07:42:29.835Z,33.38
2022-12-12T07:44:02.702Z,35.75
2022-12-12T07:45:35.445Z,34.88
2022-12-12T07:47:08.197Z,35.40
2022-12-12T07:48:42.589Z,33.38
2022-12-12T07:50:15.459Z,36.90
2022-12-12T07:51:49.341Z,38.08
2022-12-12T07:53:22.330Z,37.03
2022-12-12T07:54:55.053Z,34.50
2022-12-12T07:56:27.826Z,35.00
2022-12-12T07:58:00.682Z,34.67
2022-12-12T07:59:33.391Z,35.95
2022-12-12T08:01:15.318Z,37.80
2022-12-12T08:02:48.796Z,35.83
2022-12-12T08:04:22.938Z,35.95
2022-12-12T08:05:55.768Z,37.17
2022-12-12T08:07:28.516Z,36.13
2022-12-12T08:09:01.234Z,35.45
2022-12-12T08:10:33.958Z,36.70
2022-12-12T08:12:07.555Z,39.83
2022-12-12T08:13:41.014Z,39.25
2022-12-12T08:15:16.834Z,35.83
2022-12-12T08:16:49.560Z,38.65
2022-12-12T08:18:22.278Z,35.63
2022-12-12T08:19:56.341Z,38.28
2022-12-12T08:21:30.841Z,38.67
2022-12-12T08:23:04.285Z,38.42
2022-12-12T08:24:36.990Z,38.58
2022-12-12T08:26:11.146Z,36.83
2022-12-12T08:27:43.909Z,34.20
2022-12-12T08:29:16.817Z,37.45
2022-12-12T08:30:50.966Z,38.88
2022-12-12T08:32:23.721Z,38.13
2022-12-12T08:33:56.961Z,37.15
2022-12-12T08:35:32.418Z,38.85
2022-12-12T08:37:05.587Z,40.38
2022-12-12T08:38:38.311Z,39.45
2022-12-12T08:40:12.210Z,37.88
2022-12-12T08:41:47.892Z,37.05
2022-12-12T08:43:20.634Z,38.63
2022-12-12T08:44:53.539Z,37.08
2022-12-12T08:46:26.385Z,36.55
2022-12-12T08:47:59.497Z,40.50
2022-12-12T08:49:32.299Z,38.13
2022-12-12T08:51:06.852Z,40.95
2022-12-12T08:52:39.568Z,40.55
2022-12-12T08:54:13.787Z,44.00
2022-12-12T08:55:46.616Z,40.97
2022-12-12T08:57:24.261Z,36.92
2022-12-12T08:58:58.624Z,38.60
2022-12-12T09:00:31.377Z,40.08
2022-12-12T09:02:04.141Z,35.35
2022-12-12T09:03:36.981Z,37.10
2022-12-12T09:05:10.985Z,35.88
2022-12-12T09:06:45.864Z,35.15
2022-12-12T09:08:18.678Z,40.53
2022-12-12T09:09:51.534Z,35.80
2022-12-12T09:11:24.860Z,39.53
2022-12-12T09:12:57.686Z,39.15
2022-12-12T09:14:30.411Z,40.95
2022-12-12T09:16:03.452Z,39.55
2022-12-12T09:17:36.287Z,39.30
2022-12-12T09:19:09.012Z,39.33
2022-12-12T09:20:41.772Z,33.67
2022-12-12T09:22:17.857Z,39.58
2022-12-12T09:23:51.015Z,39.70
2022-12-12T09:25:24.839Z,37.67
2022-12-12T09:26:57.543Z,38.70
2022-12-12T09:28:30.272Z,36.55
2022-12-12T09:30:03.154Z,37.38
2022-12-12T09:31:35.975Z,36.63
2022-12-12T09:33:09.454Z,38.78
2022-12-12T09:34:42.275Z,35.85
2022-12-12T09:36:15.227Z,38.05
2022-12-12T09:37:49.290Z,35.85
2022-12-12T09:39:21.998Z,35.60
2022-12-12T09:40:56.600Z,33.92
2022-12-12T09:42:32.010Z,33.10
2022-12-12T09:44:09.249Z,33.97
2022-12-12T09:45:42.529Z,31.38
2022-12-12T09:47:20.499Z,32.97
2022-12-12T09:48:53.247Z,31.00
2022-12-12T09:50:30.503Z,34.53
2022-12-12T09:52:04.069Z,32.72
2022-12-12T09:53:39.435Z,32.67
2022-12-12T09:55:35.746Z,31.65
2022-12-12T09:57:24.556Z,32.78
2022-12-12T09:59:04.594Z,29.25
2022-12-12T10:00:41.327Z,36.20
2022-12-12T10:02:34.808Z,34.95
2022-12-12T10:04:15.863Z,29.35
2022-12-12T10:06:20.540Z,29.65
2022-12-12T10:08:00.644Z,31.17
2022-12-12T10:09:43.730Z,30.60
2022-12-12T10:11:40.009Z,30.75
2022-12-12T10:13:16.427Z,28.80
2022-12-12T10:14:53.566Z,30.00
2022-12-12T10:16:27.934Z,30.63
2022-12-12T10:18:05.952Z,29.88
2022-12-12T10:19:47.179Z,28.33
2022-12-12T10:21:26.984Z,31.70
2022-12-12T10:23:05.115Z,29.27
2022-12-12T10:24:45.682Z,28.58
2022-12-12T10:26:21.230Z,29.52
2022-12-12T10:27:56.060Z,31.05
2022-12-12T10:29:28.869Z,30.05
2022-12-12T10:31:17.492Z,32.92
2022-12-12T10:33:10.426Z,30.10
2022-12-12T10:34:57.914Z,31.88
2022-12-12T10:36:47.438Z,28.83
2022-12-12T10:38:34.838Z,31.95
2022-12-12T10:40:22.127Z,28.15
2022-12-12T10:42:02.697Z,26.73
2022-12-12T10:43:44.389Z,30.00
2022-12-12T10:45:33.967Z,27.08
2022-12-12T10:47:08.795Z,26.63
2022-12-12T10:48:41.746Z,26.92
2022-12-12T10:50:25.231Z,27.27
2022-12-12T10:52:00.835Z,26.65
2022-12-12T10:53:34.769Z,26.58
2022-12-12T10:55:19.973Z,29.67
2022-12-12T10:57:07.791Z,28.85
2022-12-12T10:58:42.486Z,25.67
2022-12-12T11:00:26.342Z,28.70
2022-12-12T11:02:16.479Z,26.98
2022-12-12T11:03:52.102Z,28.30
2022-12-12T11:05:28.808Z,26.73
2022-12-12T11:07:01.801Z,27.30
2022-12-12T11:08:36.185Z,27.92
2022-12-12T11:10:33.972Z,29.15
2022-12-12T11:12:14.623Z,26.58
2022-12-12T11:13:51.409Z,28.88
2022-12-12T11:15:29.697Z,29.60
2022-12-12T11:17:02.796Z,29.95
2022-12-12T11:18:35.615Z,29.48
2022-12-12T11:20:15.407Z,27.80
2022-12-12T11:21:48.603Z,30.02
2022-12-12T11:23:25.283Z,28.40
2022-12-12T11:24:58.128Z,32.97
2022-12-12T11:26:39.876Z,29.90
2022-12-12T11:28:25.082Z,35.83
2022-12-12T11:30:01.374Z,32.08
2022-12-12T11:31:36.191Z,29.92
2022-12-12T11:33:19.027Z,29.08
2022-12-12T11:34:55.110Z,31.20
2022-12-12T11:36:33.382Z,29.65
2022-12-12T11:38:09.202Z,32.70
2022-12-12T11:39:44.687Z,29.33
2022-12-12T11:41:17.923Z,28.55
2022-12-12T11:42:52.398Z,28.30
2022-12-12T11:44:26.676Z,26.70
2022-12-12T11:46:01.865Z,30.00
2022-12-12T11:47:41.891Z,31.50
2022-12-12T11:49:20.917Z,28.48
2022-12-12T11:50:53.627Z,32.22
2022-12-12T11:52:30.023Z,27.40
2022-12-12T11:54:04.691Z,29.77
2022-12-12T11:55:49.578Z,27.13
2022-12-12T11:57:39.829Z,29.52
2022-12-12T11:59:35.641Z,31.60
2022-12-12T12:01:15.550Z,29.35
2022-12-12T12:03:08.235Z,31.20
2022-12-12T12:04:53.545Z,29.92
2022-12-12T12:06:37.681Z,29.88
2022-12-12T12:08:22.208Z,30.63
2022-12-12T12:10:01.971Z,30.00
2022-12-12T12:11:46.960Z,30.30
2022-12-12T12:13:34.179Z,27.08
2022-12-12T12:15:30.888Z,28.08
2022-12-12T12:17:10.765Z,28.77
2022-12-12T12:18:57.410Z,29.63
2022-12-12T12:20:44.295Z,27.67
2022-12-12T12:22:31.274Z,23.77
2022-12-12T12:24:20.017Z,24.27
2022-12-12T12:25:59.018Z,28.10
2022-12-12T12:27:38.929Z,26.13
2022-12-12T12:29:32.803Z,26.17
2022-12-12T12:31:11.809Z,25.38
2022-12-12T12:32:59.640Z,28.70
2022-12-12T12:34:39.109Z,24.33
2022-12-12T12:36:21.118Z,24.88
2022-12-12T12:38:07.154Z,29.77
2022-12-12T12:39:53.045Z,28.92
2022-12-12T12:41:42.080Z,30.38
2022-12-12T12:43:29.189Z,31.33
2022-12-12T12:45:08.389Z,29.65
2022-12-12T12:46:48.062Z,29.33
2022-12-12T12:48:23.725Z,33.45
2022-12-12T12:50:02.584Z,30.42
2022-12-12T12:51:37.999Z,29.48
2022-12-12T12:53:26.588Z,32.90
2022-12-12T12:55:00.597Z,31.08
2022-12-12T12:56:38.588Z,34.33
2022-12-12T12:58:19.797Z,29.73
2022-12-12T12:59:56.950Z,33.63
2022-12-12T13:01:34.950Z,31.65
2022-12-12T13:03:19.896Z,28.27
2022-12-12T13:04:59.862Z,31.92
2022-12-12T13:06:43.631Z,32.38
2022-12-12T13:08:23.638Z,33.00
2022-12-12T13:10:02.250Z,31.90
2022-12-12T13:11:38.163Z,30.33
2022-12-12T13:13:20.096Z,32.53
2022-12-12T13:14:56.743Z,30.85
2022-12-12T13:16:33.778Z,32.92
2022-12-12T13:18:15.863Z,32.97
2022-12-12T13:19:53.329Z,32.80
2022-12-12T13:21:35.966Z,34.40
2022-12-12T13:23:31.941Z,35.13
2022-12-12T13:25:12.213Z,29.95
2022-12-12T13:26:50.518Z,33.42
2022-12-12T13:28:27.652Z,34.58
2022-12-12T13:30:04.866Z,32.55
2022-12-12T13:31:55.557Z,31.42
2022-12-12T13:33:39.794Z,36.25
2022-12-12T13:35:16.946Z,36.22
2022-12-12T13:36:51.256Z,32.30
2022-12-12T13:38:27.538Z,34.03
2022-12-12T13:40:04.586Z,35.45
2022-12-12T13:42:01.539Z,35.63
2022-12-12T13:43:44.620Z,34.53
2022-12-12T13:45:41.171Z,33.38
2022-12-12T13:47:55.265Z,31.20
2022-12-12T13:49:38.652Z,35.72
2022-12-12T13:51:48.247Z,31.63
2022-12-12T13:53:21.318Z,35.13
2022-12-12T13:54:57.234Z,32.97
2022-12-12T13:56:35.132Z,33.13
2022-12-12T13:58:22.254Z,32.72
2022-12-12T14:00:28.940Z,32.70
2022-12-12T14:02:02.923Z,37.17
2022-12-12T14:03:35.783Z,36.45
2022-12-12T14:05:13.735Z,32.55
2022-12-12T14:06:46.485Z,34.05
2022-12-12T14:08:29.355Z,34.22
2022-12-12T14:10:17.904Z,33.67
2022-12-12T14:11:51.266Z,36.25
2022-12-12T14:13:35.062Z,29.75
2022-12-12T14:15:19.176Z,35.85
2022-12-12T14:16:56.821Z,34.80
2022-12-12T14:18:32.625Z,35.67
2022-12-12T14:20:07.193Z,36.30
2022-12-12T14:21:45.135Z,33.45
2022-12-12T14:23:27.324Z,35.00
2022-12-12T14:25:08.711Z,37.80
2022-12-12T14:26:59.350Z,34.95
2022-12-12T14:28:33.227Z,32.63
2022-12-12T14:30:17.707Z,32.72
2022-12-12T14:32:02.757Z,32.55
2022-12-12T14:33:57.690Z,36.65
2022-12-12T14:35:40.484Z,32.95
2022-12-12T14:37:39.779Z,36.40
2022-12-12T14:39:24.763Z,36.17
2022-12-12T14:41:01.888Z,33.92
2022-12-12T14:43:19.035Z,34.88
2022-12-12T14:44:47.860Z,38.30
2022-12-12T14:46:23.410Z,36.03
2022-12-12T14:48:16.074Z,38.47
2022-12-12T14:49:49.011Z,36.72
2022-12-12T14:51:29.205Z,38.05
2022-12-12T14:53:04.916Z,37.40
2022-12-12T14:54:37.868Z,40.38
2022-12-12T14:56:13.382Z,38.15
2022-12-12T14:57:49.735Z,38.70
2022-12-12T14:59:24.352Z,35.65
2022-12-12T15:00:59.867Z,36.83
2022-12-12T15:02:38.730Z,38.55
2022-12-12T15:04:14.986Z,38.38
2022-12-12T15:05:47.718Z,34.85
2022-12-12T15:07:24.696Z,37.38
2022-12-12T15:09:08.876Z,38.35
2022-12-12T15:10:41.603Z,42.05
2022-12-12T15:12:17.578Z,43.25
2022-12-12T15:13:54.785Z,44.72
2022-12-12T15:15:29.553Z,40.72
2022-12-12T15:17:05.503Z,41.50
2022-12-12T15:18:38.308Z,40.03
2022-12-12T15:20:18.222Z,40.85
2022-12-12T15:21:51.075Z,39.58
2022-12-12T15:23:24.633Z,39.88
2022-12-12T15:25:00.403Z,43.03
2022-12-12T15:26:33.172Z,40.88
2022-12-12T15:28:06.105Z,45.83
2022-12-12T15:29:39.146Z,40.63
2022-12-12T15:31:15.966Z,43.95
2022-12-12T15:32:49.604Z,38.17
2022-12-12T15:34:34.814Z,39.17
2022-12-12T15:36:18.836Z,42.65
2022-12-12T15:37:56.430Z,37.63
2022-12-12T15:39:29.167Z,36.53
2022-12-12T15:41:11.321Z,44.80
2022-12-12T15:42:48.331Z,41.33
2022-12-12T15:44:22.302Z,39.13
2022-12-12T15:45:56.943Z,40.35
2022-12-12T15:47:29.831Z,39.80
2022-12-12T15:49:02.564Z,46.85
2022-12-12T15:50:50.946Z,44.75
2022-12-12T15:52:28.008Z,39.83
2022-12-12T15:54:01.503Z,41.95
2022-12-12T15:55:35.298Z,42.55
2022-12-12T15:57:16.011Z,41.25
2022-12-12T15:58:51.629Z,38.67
2022-12-12T16:00:35.105Z,43.22
2022-12-12T16:02:23.162Z,42.70
2022-12-12T16:03:58.768Z,40.95
2022-12-12T16:05:33.881Z,44.05
2022-12-12T16:07:21.121Z,50.08
2022-12-12T16:09:01.431Z,49.80
2022-12-12T16:10:54.186Z,46.55
2022-12-12T16:13:02.318Z,44.97
2022-12-12T16:14:40.741Z,41.10
2022-12-12T16:16:45.863Z,41.97
2022-12-12T16:18:20.858Z,41.65
2022-12-12T16:19:55.591Z,46.15
2022-12-12T16:21:29.296Z,42.22
2022-12-12T16:23:19.840Z,43.60
2022-12-12T16:24:54.568Z,46.22
2022-12-12T16:26:27.292Z,48.55
2022-12-12T16:28:13.539Z,42.97
2022-12-12T16:29:47.207Z,45.80
2022-12-12T16:31:19.961Z,44.90
2022-12-12T16:32:52.908Z,44.58
2022-12-12T16:34:25.630Z,46.35
2022-12-12T16:36:00.353Z,43.38
2022-12-12T16:37:34.160Z,44.58
2022-12-12T16:39:07.114Z,43.47
2022-12-12T16:40:39.901Z,42.72
2022-12-12T16:42:16.952Z,44.22
2022-12-12T16:43:51.118Z,41.88
2022-12-12T16:45:24.167Z,41.40
2022-12-12T16:46:56.961Z,43.65
2022-12-12T16:48:34.134Z,41.75
2022-12-12T16:50:07.570Z,45.67
2022-12-12T16:51:41.882Z,54.55
2022-12-12T16:53:14.694Z,44.60
2022-12-12T16:54:53.327Z,43.00
2022-12-12T16:56:27.284Z,42.88
2022-12-12T16:58:00.013Z,47.33
2022-12-12T16:59:34.149Z,49.40
2022-12-12T17:01:07.563Z,47.22
2022-12-12T17:02:40.443Z,47.17
2022-12-12T17:04:21.704Z,44.38
2022-12-12T17:05:54.530Z,46.85
2022-12-12T17:07:27.242Z,47.00
2022-12-12T17:08:59.973Z,48.05
2022-12-12T17:10:34.558Z,47.40
2022-12-12T17:12:08.829Z,45.33
2022-12-12T17:13:46.835Z,46.47
2022-12-12T17:15:24.749Z,50.90
2022-12-12T17:16:57.543Z,52.42
2022-12-12T17:18:30.307Z,44.53
2022-12-12T17:20:03.090Z,48.13
2022-12-12T17:21:35.811Z,47.10
2022-12-12T17:23:30.373Z,44.80
2022-12-12T17:25:03.216Z,45.85
2022-12-12T17:26:37.094Z,44.65
2022-12-12T17:28:13.951Z,45.50
2022-12-12T17:29:46.696Z,49.42
2022-12-12T17:31:20.769Z,47.33
2022-12-12T17:34:43.630Z,44.28
2022-12-12T17:36:16.612Z,41.80
2022-12-12T17:37:49.808Z,46.78
2022-12-12T17:39:23.019Z,41.20
2022-12-12T17:40:56.722Z,44.40
2022-12-12T17:42:31.232Z,47.33
2022-12-12T17:44:04.099Z,44.28
2022-12-12T17:45:36.913Z,42.90
2022-12-12T17:47:11.275Z,43.20
2022-12-12T17:48:45.899Z,39.45
2022-12-12T17:50:18.747Z,44.90
2022-12-12T17:51:51.447Z,43.17
2022-12-12T17:53:24.172Z,44.38
2022-12-12T17:55:54.850Z,44.65
2022-12-12T17:56:50.234Z,50.17
2022-12-12T17:58:29.419Z,43.80
2022-12-12T18:00:02.652Z,45.60
2022-12-12T18:01:36.079Z,47.60
2022-12-12T18:03:10.178Z,52.72
2022-12-12T18:04:42.999Z,48.65
2022-12-12T18:06:16.231Z,47.60
2022-12-12T18:07:49.009Z,47.28
2022-12-12T18:09:21.789Z,46.05
2022-12-12T18:10:54.519Z,49.92
2022-12-12T18:12:27.261Z,46.30
2022-12-12T18:14:01.955Z,48.60
2022-12-12T18:15:34.778Z,48.65
2022-12-12T18:17:07.571Z,48.75
2022-12-12T18:18:42.023Z,53.05
2022-12-12T18:20:14.942Z,48.33
2022-12-12T18:22:03.802Z,51.00
2022-12-12T18:23:37.222Z,48.95
2022-12-12T18:25:10.692Z,51.55
2022-12-12T18:26:43.820Z,46.90
2022-12-12T18:28:16.519Z,49.53
2022-12-12T18:29:49.613Z,48.85
2022-12-12T18:31:22.576Z,47.30
2022-12-12T18:32:59.774Z,47.88
2022-12-12T18:34:37.125Z,50.85
2022-12-12T18:36:13.035Z,50.75
2022-12-12T18:37:45.750Z,48.53
2022-12-12T18:39:19.071Z,48.05
2022-12-12T18:40:53.342Z,48.30
2022-12-12T18:42:26.070Z,52.03
2022-12-12T18:43:58.925Z,50.83
2022-12-12T18:45:31.771Z,51.17
2022-12-12T18:47:04.582Z,52.88
2022-12-12T18:48:39.209Z,49.08
2022-12-12T18:50:14.018Z,51.53
2022-12-12T18:51:47.335Z,48.42
2022-12-12T18:53:20.047Z,50.08
2022-12-12T18:54:52.941Z,49.65
2022-12-12T18:56:28.192Z,50.33
2022-12-12T18:58:01.389Z,45.60
2022-12-12T18:59:34.676Z,49.45
2022-12-12T19:01:08.426Z,51.55
2022-12-12T19:02:41.212Z,52.28
2022-12-12T19:04:22.500Z,46.35
2022-12-12T19:05:57.527Z,55.95
2022-12-12T19:07:31.172Z,50.28
2022-12-12T19:09:07.057Z,47.53
2022-12-12T19:10:40.748Z,46.97
2022-12-12T19:12:13.541Z,47.17
2022-12-12T19:13:47.139Z,44.35
2022-12-12T19:15:19.845Z,48.55
2022-12-12T19:16:52.705Z,48.30
2022-12-12T19:18:25.464Z,46.15
2022-12-12T19:19:58.213Z,47.05
2022-12-12T19:21:33.701Z,49.13
2022-12-12T19:23:06.444Z,47.33
2022-12-12T19:24:41.006Z,49.72
2022-12-12T19:26:17.113Z,46.83
2022-12-12T19:27:49.846Z,45.25
2022-12-12T19:29:22.623Z,52.90
2022-12-12T19:30:55.493Z,51.25
2022-12-12T19:32:28.339Z,51.70
2022-12-12T19:34:01.832Z,52.53
2022-12-12T19:35:37.238Z,51.63
2022-12-12T19:37:11.343Z,51.20
2022-12-12T19:38:45.280Z,45.28
2022-12-12T19:40:18.481Z,46.45
2022-12-12T19:41:51.525Z,47.25
2022-12-12T19:43:24.245Z,45.13
2022-12-12T19:44:57.001Z,50.38
2022-12-12T19:46:32.079Z,47.30
2022-12-12T19:48:05.199Z,46.45
2022-12-12T19:49:38.526Z,48.30
2022-12-12T19:51:13.927Z,48.78
2022-12-12T19:52:48.004Z,48.80
2022-12-12T19:54:21.702Z,49.28
2022-12-12T19:55:54.445Z,52.88
2022-12-12T19:57:27.331Z,48.30
2022-12-12T19:59:01.068Z,45.08
2022-12-12T20:00:33.782Z,48.78
2022-12-12T20:02:07.025Z,52.35
2022-12-12T20:03:40.063Z,47.85
2022-12-12T20:05:12.975Z,52.33
2022-12-12T20:06:46.757Z,54.97
2022-12-12T20:08:20.914Z,52.80
2022-12-12T20:09:53.648Z,50.50
2022-12-12T20:11:26.402Z,55.38
2022-12-12T20:12:59.131Z,50.92
2022-12-12T20:14:34.763Z,54.13
2022-12-12T20:16:09.086Z,52.95
2022-12-12T20:17:41.832Z,48.08
2022-12-12T20:19:15.299Z,52.22
2022-12-12T20:20:48.013Z,50.50
2022-12-12T20:22:20.840Z,55.58
2022-12-12T20:23:55.312Z,51.08
2022-12-12T20:25:28.602Z,49.28
2022-12-12T20:27:02.968Z,49.75
2022-12-12T20:28:36.442Z,51.05
2022-12-12T20:30:10.440Z,52.42
2022-12-12T20:31:45.835Z,44.72
2022-12-12T20:33:18.563Z,47.85
2022-12-12T20:34:51.291Z,45.30
2022-12-12T20:36:26.026Z,49.28
2022-12-12T20:37:58.784Z,44.63
2022-12-12T20:39:35.268Z,44.33
2022-12-12T20:41:11.051Z,43.45
2022-12-12T20:42:47.331Z,53.55
2022-12-12T20:44:24.050Z,46.13
2022-12-12T20:45:56.961Z,45.67
2022-12-12T20:47:29.719Z,49.13
2022-12-12T20:49:04.892Z,42.65
2022-12-12T20:50:37.639Z,48.38
2022-12-12T20:52:10.431Z,49.80